sensor_id;sensor_type;location;lat;lon;timestamp;P1;durP1;ratioP1;P2;durP2;ratioP2
28447;SDS011;15675;52.870;-1.416;2023-05-27T00:01:57;9.95;;;3.53;;
28447;SDS011;15675;52.870;-1.416;2023-05-27T00:04:23;11.05;;;3.65;;
28447;SDS011;15675;52.870;-1.416;2023-05-27T00:06:48;13.43;;;3.92;;
28447;SDS011;15675;52.870;-1.416;2023-05-27T00:09:14;5.45;;;2.97;;
28447;SDS011;15675;52.870;-1.416;2023-05-27T00:11:40;11.25;;;3.90;;
28447;SDS011;15675;52.870;-1.416;2023-05-27T00:14:05;15.18;;;4.30;;
28447;SDS011;15675;52.870;-1.416;2023-05-27T00:16:31;11.50;;;3.30;;
28447;SDS011;15675;52.870;-1.416;2023-05-27T00:18:57;9.15;;;3.38;;
28447;SDS011;15675;52.870;-1.416;2023-05-27T00:21:22;10.43;;;3.47;;
28447;SDS011;15675;52.870;-1.416;2023-05-27T00:23:50;12.98;;;3.50;;
28447;SDS011;15675;52.870;-1.416;2023-05-27T00:26:16;10.63;;;3.80;;
28447;SDS011;15675;52.870;-1.416;2023-05-27T00:28:42;16.00;;;5.47;;
28447;SDS011;15675;52.870;-1.416;2023-05-27T00:31:07;19.42;;;4.53;;
28447;SDS011;15675;52.870;-1.416;2023-05-27T00:33:33;22.60;;;4.82;;
28447;SDS011;15675;52.870;-1.416;2023-05-27T00:35:58;15.02;;;4.90;;
28447;SDS011;15675;52.870;-1.416;2023-05-27T00:38:24;20.55;;;5.07;;
28447;SDS011;15675;52.870;-1.416;2023-05-27T00:40:50;16.40;;;5.22;;
28447;SDS011;15675;52.870;-1.416;2023-05-27T00:43:18;8.15;;;3.50;;
28447;SDS011;15675;52.870;-1.416;2023-05-27T00:45:44;14.32;;;4.07;;
28447;SDS011;15675;52.870;-1.416;2023-05-27T00:48:09;11.20;;;4.63;;
28447;SDS011;15675;52.870;-1.416;2023-05-27T00:50:35;12.30;;;4.03;;
28447;SDS011;15675;52.870;-1.416;2023-05-27T00:53:00;10.68;;;4.07;;
28447;SDS011;15675;52.870;-1.416;2023-05-27T00:55:27;15.40;;;4.60;;
28447;SDS011;15675;52.870;-1.416;2023-05-27T00:57:53;13.07;;;4.07;;
28447;SDS011;15675;52.870;-1.416;2023-05-27T01:00:20;10.60;;;3.60;;
28447;SDS011;15675;52.870;-1.416;2023-05-27T01:02:48;10.50;;;4.22;;
28447;SDS011;15675;52.870;-1.416;2023-05-27T01:05:16;8.32;;;3.60;;
28447;SDS011;15675;52.870;-1.416;2023-05-27T01:10:46;10.02;;;4.20;;
28447;SDS011;15675;52.870;-1.416;2023-05-27T01:15:53;8.65;;;3.53;;
28447;SDS011;15675;52.870;-1.416;2023-05-27T01:18:20;13.30;;;3.60;;
28447;SDS011;15675;52.870;-1.416;2023-05-27T01:20:48;12.65;;;4.38;;
28447;SDS011;15675;52.870;-1.416;2023-05-27T01:23:16;12.40;;;4.35;;
28447;SDS011;15675;52.870;-1.416;2023-05-27T01:25:42;11.63;;;4.13;;
28447;SDS011;15675;52.870;-1.416;2023-05-27T01:28:08;11.05;;;4.40;;
28447;SDS011;15675;52.870;-1.416;2023-05-27T01:30:33;9.55;;;3.30;;
28447;SDS011;15675;52.870;-1.416;2023-05-27T01:33:09;12.63;;;3.92;;
28447;SDS011;15675;52.870;-1.416;2023-05-27T01:36:02;12.68;;;3.90;;
28447;SDS011;15675;52.870;-1.416;2023-05-27T01:38:32;10.63;;;3.95;;
28447;SDS011;15675;52.870;-1.416;2023-05-27T01:41:00;9.10;;;3.70;;
28447;SDS011;15675;52.870;-1.416;2023-05-27T01:43:26;14.30;;;4.55;;
28447;SDS011;15675;52.870;-1.416;2023-05-27T01:45:52;11.13;;;4.47;;
28447;SDS011;15675;52.870;-1.416;2023-05-27T01:48:18;13.23;;;4.15;;
28447;SDS011;15675;52.870;-1.416;2023-05-27T01:50:44;9.15;;;3.53;;
28447;SDS011;15675;52.870;-1.416;2023-05-27T01:53:10;13.88;;;4.38;;
28447;SDS011;15675;52.870;-1.416;2023-05-27T01:55:36;10.90;;;4.22;;
28447;SDS011;15675;52.870;-1.416;2023-05-27T01:58:03;13.23;;;4.00;;
28447;SDS011;15675;52.870;-1.416;2023-05-27T02:00:28;9.88;;;3.90;;
28447;SDS011;15675;52.870;-1.416;2023-05-27T02:02:55;11.18;;;4.22;;
28447;SDS011;15675;52.870;-1.416;2023-05-27T02:05:20;14.80;;;5.00;;
28447;SDS011;15675;52.870;-1.416;2023-05-27T02:07:46;15.32;;;4.70;;
28447;SDS011;15675;52.870;-1.416;2023-05-27T02:10:11;15.30;;;4.53;;
28447;SDS011;15675;52.870;-1.416;2023-05-27T02:12:37;10.77;;;4.07;;
28447;SDS011;15675;52.870;-1.416;2023-05-27T02:15:02;16.92;;;4.40;;
28447;SDS011;15675;52.870;-1.416;2023-05-27T02:17:28;8.57;;;4.07;;
28447;SDS011;15675;52.870;-1.416;2023-05-27T02:19:54;12.73;;;4.80;;
28447;SDS011;15675;52.870;-1.416;2023-05-27T02:22:20;13.13;;;4.30;;
28447;SDS011;15675;52.870;-1.416;2023-05-27T02:24:46;21.60;;;4.93;;
28447;SDS011;15675;52.870;-1.416;2023-05-27T02:27:12;11.80;;;4.20;;
28447;SDS011;15675;52.870;-1.416;2023-05-27T02:29:38;12.75;;;4.40;;
28447;SDS011;15675;52.870;-1.416;2023-05-27T02:32:03;15.15;;;4.30;;
28447;SDS011;15675;52.870;-1.416;2023-05-27T02:34:29;17.17;;;4.47;;
28447;SDS011;15675;52.870;-1.416;2023-05-27T02:36:54;18.58;;;4.97;;
28447;SDS011;15675;52.870;-1.416;2023-05-27T02:39:20;17.00;;;5.03;;
28447;SDS011;15675;52.870;-1.416;2023-05-27T02:41:46;14.93;;;3.22;;
28447;SDS011;15675;52.870;-1.416;2023-05-27T02:44:11;11.68;;;3.90;;
28447;SDS011;15675;52.870;-1.416;2023-05-27T02:46:37;13.43;;;4.00;;
28447;SDS011;15675;52.870;-1.416;2023-05-27T02:49:02;11.13;;;3.92;;
28447;SDS011;15675;52.870;-1.416;2023-05-27T02:51:28;10.02;;;3.67;;
28447;SDS011;15675;52.870;-1.416;2023-05-27T02:53:54;11.73;;;4.07;;
28447;SDS011;15675;52.870;-1.416;2023-05-27T02:56:20;12.20;;;4.35;;
28447;SDS011;15675;52.870;-1.416;2023-05-27T02:58:46;13.45;;;3.63;;
28447;SDS011;15675;52.870;-1.416;2023-05-27T03:01:11;10.93;;;3.28;;
28447;SDS011;15675;52.870;-1.416;2023-05-27T03:03:37;13.20;;;4.95;;
28447;SDS011;15675;52.870;-1.416;2023-05-27T03:06:03;14.77;;;4.25;;
28447;SDS011;15675;52.870;-1.416;2023-05-27T03:08:28;10.48;;;3.75;;
28447;SDS011;15675;52.870;-1.416;2023-05-27T03:10:54;11.05;;;4.55;;
28447;SDS011;15675;52.870;-1.416;2023-05-27T03:13:20;23.60;;;4.65;;
28447;SDS011;15675;52.870;-1.416;2023-05-27T03:15:45;8.90;;;3.70;;
28447;SDS011;15675;52.870;-1.416;2023-05-27T03:18:10;10.48;;;3.33;;
28447;SDS011;15675;52.870;-1.416;2023-05-27T03:20:36;8.48;;;3.20;;
28447;SDS011;15675;52.870;-1.416;2023-05-27T03:23:02;11.15;;;3.83;;
28447;SDS011;15675;52.870;-1.416;2023-05-27T03:25:28;14.02;;;3.70;;
28447;SDS011;15675;52.870;-1.416;2023-05-27T03:27:54;7.80;;;3.35;;
28447;SDS011;15675;52.870;-1.416;2023-05-27T03:30:19;11.45;;;3.65;;
28447;SDS011;15675;52.870;-1.416;2023-05-27T03:32:45;14.02;;;3.47;;
28447;SDS011;15675;52.870;-1.416;2023-05-27T03:35:10;11.85;;;4.18;;
28447;SDS011;15675;52.870;-1.416;2023-05-27T03:37:36;10.70;;;3.40;;
28447;SDS011;15675;52.870;-1.416;2023-05-27T03:40:02;12.38;;;4.03;;
28447;SDS011;15675;52.870;-1.416;2023-05-27T03:42:28;9.85;;;3.80;;
28447;SDS011;15675;52.870;-1.416;2023-05-27T03:44:54;11.80;;;4.10;;
28447;SDS011;15675;52.870;-1.416;2023-05-27T03:47:19;10.77;;;3.83;;
28447;SDS011;15675;52.870;-1.416;2023-05-27T03:49:46;13.07;;;4.40;;
28447;SDS011;15675;52.870;-1.416;2023-05-27T03:52:12;8.30;;;4.05;;
28447;SDS011;15675;52.870;-1.416;2023-05-27T03:54:38;14.13;;;4.15;;
28447;SDS011;15675;52.870;-1.416;2023-05-27T03:57:04;8.65;;;3.85;;
28447;SDS011;15675;52.870;-1.416;2023-05-27T03:59:30;10.88;;;5.05;;
28447;SDS011;15675;52.870;-1.416;2023-05-27T04:01:56;17.23;;;5.05;;
28447;SDS011;15675;52.870;-1.416;2023-05-27T04:04:21;18.83;;;5.68;;
28447;SDS011;15675;52.870;-1.416;2023-05-27T04:06:47;15.30;;;5.22;;
28447;SDS011;15675;52.870;-1.416;2023-05-27T04:09:12;17.20;;;6.35;;
28447;SDS011;15675;52.870;-1.416;2023-05-27T04:11:38;15.18;;;5.03;;
28447;SDS011;15675;52.870;-1.416;2023-05-27T04:14:04;12.38;;;5.30;;
28447;SDS011;15675;52.870;-1.416;2023-05-27T04:16:31;13.73;;;5.53;;
28447;SDS011;15675;52.870;-1.416;2023-05-27T04:18:59;13.65;;;6.53;;
28447;SDS011;15675;52.870;-1.416;2023-05-27T04:21:25;22.55;;;8.13;;
28447;SDS011;15675;52.870;-1.416;2023-05-27T04:23:51;18.50;;;7.22;;
28447;SDS011;15675;52.870;-1.416;2023-05-27T04:26:17;20.05;;;7.40;;
28447;SDS011;15675;52.870;-1.416;2023-05-27T04:28:43;20.42;;;7.18;;
28447;SDS011;15675;52.870;-1.416;2023-05-27T04:31:10;17.30;;;6.28;;
28447;SDS011;15675;52.870;-1.416;2023-05-27T04:33:40;12.02;;;5.82;;
28447;SDS011;15675;52.870;-1.416;2023-05-27T04:36:09;15.80;;;5.30;;
28447;SDS011;15675;52.870;-1.416;2023-05-27T04:38:36;11.52;;;4.93;;
28447;SDS011;15675;52.870;-1.416;2023-05-27T04:41:01;14.77;;;5.70;;
28447;SDS011;15675;52.870;-1.416;2023-05-27T04:43:29;13.95;;;4.43;;
28447;SDS011;15675;52.870;-1.416;2023-05-27T04:45:55;11.55;;;4.57;;
28447;SDS011;15675;52.870;-1.416;2023-05-27T04:48:22;14.40;;;4.50;;
28447;SDS011;15675;52.870;-1.416;2023-05-27T04:50:49;9.55;;;4.25;;
28447;SDS011;15675;52.870;-1.416;2023-05-27T04:53:18;13.82;;;4.20;;
28447;SDS011;15675;52.870;-1.416;2023-05-27T04:55:44;11.55;;;4.55;;
28447;SDS011;15675;52.870;-1.416;2023-05-27T04:58:10;11.82;;;4.28;;
28447;SDS011;15675;52.870;-1.416;2023-05-27T05:00:36;10.18;;;4.35;;
28447;SDS011;15675;52.870;-1.416;2023-05-27T05:03:04;7.70;;;4.28;;
28447;SDS011;15675;52.870;-1.416;2023-05-27T05:05:32;10.63;;;3.92;;
28447;SDS011;15675;52.870;-1.416;2023-05-27T05:07:58;14.02;;;4.20;;
28447;SDS011;15675;52.870;-1.416;2023-05-27T05:10:24;12.23;;;4.63;;
28447;SDS011;15675;52.870;-1.416;2023-05-27T05:12:50;14.10;;;4.47;;
28447;SDS011;15675;52.870;-1.416;2023-05-27T05:15:15;19.70;;;4.40;;
28447;SDS011;15675;52.870;-1.416;2023-05-27T05:17:41;13.20;;;4.15;;
28447;SDS011;15675;52.870;-1.416;2023-05-27T05:20:07;15.38;;;4.82;;
28447;SDS011;15675;52.870;-1.416;2023-05-27T05:22:34;14.02;;;5.05;;
28447;SDS011;15675;52.870;-1.416;2023-05-27T05:25:00;11.32;;;4.63;;
28447;SDS011;15675;52.870;-1.416;2023-05-27T05:27:26;15.82;;;5.65;;
28447;SDS011;15675;52.870;-1.416;2023-05-27T05:29:53;12.25;;;4.28;;
28447;SDS011;15675;52.870;-1.416;2023-05-27T05:32:18;11.43;;;4.93;;
28447;SDS011;15675;52.870;-1.416;2023-05-27T05:34:44;15.43;;;4.65;;
28447;SDS011;15675;52.870;-1.416;2023-05-27T05:37:10;13.18;;;5.00;;
28447;SDS011;15675;52.870;-1.416;2023-05-27T05:39:40;14.38;;;4.95;;
28447;SDS011;15675;52.870;-1.416;2023-05-27T05:42:06;15.35;;;4.15;;
28447;SDS011;15675;52.870;-1.416;2023-05-27T05:44:31;12.82;;;5.25;;
28447;SDS011;15675;52.870;-1.416;2023-05-27T05:46:59;11.43;;;4.55;;
28447;SDS011;15675;52.870;-1.416;2023-05-27T05:49:25;14.45;;;4.88;;
28447;SDS011;15675;52.870;-1.416;2023-05-27T05:51:50;20.17;;;5.88;;
28447;SDS011;15675;52.870;-1.416;2023-05-27T05:54:15;20.30;;;6.32;;
28447;SDS011;15675;52.870;-1.416;2023-05-27T05:56:41;13.90;;;5.13;;
28447;SDS011;15675;52.870;-1.416;2023-05-27T05:59:06;10.45;;;4.88;;
28447;SDS011;15675;52.870;-1.416;2023-05-27T06:01:32;14.70;;;5.57;;
28447;SDS011;15675;52.870;-1.416;2023-05-27T06:03:57;14.15;;;5.22;;
28447;SDS011;15675;52.870;-1.416;2023-05-27T06:06:24;15.52;;;5.30;;
28447;SDS011;15675;52.870;-1.416;2023-05-27T06:08:49;15.45;;;5.50;;
28447;SDS011;15675;52.870;-1.416;2023-05-27T06:11:15;12.35;;;5.65;;
28447;SDS011;15675;52.870;-1.416;2023-05-27T06:13:41;18.55;;;5.10;;
28447;SDS011;15675;52.870;-1.416;2023-05-27T06:16:07;16.30;;;5.65;;
28447;SDS011;15675;52.870;-1.416;2023-05-27T06:18:32;26.98;;;6.70;;
28447;SDS011;15675;52.870;-1.416;2023-05-27T06:20:58;15.25;;;5.50;;
28447;SDS011;15675;52.870;-1.416;2023-05-27T06:23:23;12.25;;;5.35;;
28447;SDS011;15675;52.870;-1.416;2023-05-27T06:25:48;18.60;;;6.85;;
28447;SDS011;15675;52.870;-1.416;2023-05-27T06:28:14;17.52;;;7.20;;
28447;SDS011;15675;52.870;-1.416;2023-05-27T06:30:39;19.20;;;6.70;;
28447;SDS011;15675;52.870;-1.416;2023-05-27T06:33:05;20.13;;;6.70;;
28447;SDS011;15675;52.870;-1.416;2023-05-27T06:35:31;15.15;;;6.93;;
28447;SDS011;15675;52.870;-1.416;2023-05-27T06:38:00;19.40;;;6.22;;
28447;SDS011;15675;52.870;-1.416;2023-05-27T06:40:26;16.00;;;5.55;;
28447;SDS011;15675;52.870;-1.416;2023-05-27T06:42:52;18.40;;;5.60;;
28447;SDS011;15675;52.870;-1.416;2023-05-27T06:45:18;21.42;;;6.40;;
28447;SDS011;15675;52.870;-1.416;2023-05-27T06:47:44;16.65;;;6.28;;
28447;SDS011;15675;52.870;-1.416;2023-05-27T06:50:09;17.23;;;5.55;;
28447;SDS011;15675;52.870;-1.416;2023-05-27T06:52:35;16.00;;;5.25;;
28447;SDS011;15675;52.870;-1.416;2023-05-27T06:55:01;17.10;;;5.50;;
28447;SDS011;15675;52.870;-1.416;2023-05-27T06:57:26;18.98;;;6.32;;
28447;SDS011;15675;52.870;-1.416;2023-05-27T06:59:52;27.33;;;6.65;;
28447;SDS011;15675;52.870;-1.416;2023-05-27T07:02:17;19.23;;;5.53;;
28447;SDS011;15675;52.870;-1.416;2023-05-27T07:04:43;19.98;;;6.00;;
28447;SDS011;15675;52.870;-1.416;2023-05-27T07:07:08;15.38;;;5.40;;
28447;SDS011;15675;52.870;-1.416;2023-05-27T07:09:34;16.35;;;5.47;;
28447;SDS011;15675;52.870;-1.416;2023-05-27T07:12:00;20.92;;;6.65;;
28447;SDS011;15675;52.870;-1.416;2023-05-27T07:14:26;24.55;;;6.13;;
28447;SDS011;15675;52.870;-1.416;2023-05-27T07:16:52;21.75;;;6.22;;
28447;SDS011;15675;52.870;-1.416;2023-05-27T07:19:17;21.50;;;4.85;;
28447;SDS011;15675;52.870;-1.416;2023-05-27T07:21:43;23.20;;;5.40;;
28447;SDS011;15675;52.870;-1.416;2023-05-27T07:24:08;18.25;;;5.38;;
28447;SDS011;15675;52.870;-1.416;2023-05-27T07:26:35;19.13;;;5.60;;
28447;SDS011;15675;52.870;-1.416;2023-05-27T07:29:01;27.92;;;5.40;;
28447;SDS011;15675;52.870;-1.416;2023-05-27T07:31:28;15.98;;;4.95;;
28447;SDS011;15675;52.870;-1.416;2023-05-27T07:33:54;19.13;;;4.85;;
28447;SDS011;15675;52.870;-1.416;2023-05-27T07:36:20;18.20;;;5.80;;
28447;SDS011;15675;52.870;-1.416;2023-05-27T07:38:46;26.67;;;5.45;;
28447;SDS011;15675;52.870;-1.416;2023-05-27T07:41:11;19.85;;;4.95;;
28447;SDS011;15675;52.870;-1.416;2023-05-27T07:43:37;16.20;;;5.03;;
28447;SDS011;15675;52.870;-1.416;2023-05-27T07:46:03;15.60;;;4.93;;
28447;SDS011;15675;52.870;-1.416;2023-05-27T07:48:28;17.27;;;4.78;;
28447;SDS011;15675;52.870;-1.416;2023-05-27T07:50:54;16.23;;;5.88;;
28447;SDS011;15675;52.870;-1.416;2023-05-27T07:53:20;19.98;;;5.00;;
28447;SDS011;15675;52.870;-1.416;2023-05-27T07:55:46;20.95;;;4.95;;
28447;SDS011;15675;52.870;-1.416;2023-05-27T07:58:12;25.73;;;5.82;;
28447;SDS011;15675;52.870;-1.416;2023-05-27T08:00:37;16.65;;;4.35;;
28447;SDS011;15675;52.870;-1.416;2023-05-27T08:03:03;19.95;;;4.82;;
28447;SDS011;15675;52.870;-1.416;2023-05-27T08:05:28;14.63;;;4.10;;
28447;SDS011;15675;52.870;-1.416;2023-05-27T08:07:54;21.92;;;4.40;;
28447;SDS011;15675;52.870;-1.416;2023-05-27T08:10:20;17.30;;;4.22;;
28447;SDS011;15675;52.870;-1.416;2023-05-27T08:12:45;14.77;;;4.32;;
28447;SDS011;15675;52.870;-1.416;2023-05-27T08:15:11;14.98;;;3.65;;
28447;SDS011;15675;52.870;-1.416;2023-05-27T08:17:36;15.15;;;3.53;;
28447;SDS011;15675;52.870;-1.416;2023-05-27T08:20:02;14.45;;;3.65;;
28447;SDS011;15675;52.870;-1.416;2023-05-27T08:22:29;18.70;;;3.78;;
28447;SDS011;15675;52.870;-1.416;2023-05-27T08:24:54;19.73;;;4.60;;
28447;SDS011;15675;52.870;-1.416;2023-05-27T08:27:20;15.00;;;3.75;;
28447;SDS011;15675;52.870;-1.416;2023-05-27T08:29:46;15.07;;;3.60;;
28447;SDS011;15675;52.870;-1.416;2023-05-27T08:32:11;19.75;;;4.00;;
28447;SDS011;15675;52.870;-1.416;2023-05-27T08:34:37;16.65;;;4.10;;
28447;SDS011;15675;52.870;-1.416;2023-05-27T08:37:04;12.88;;;3.33;;
28447;SDS011;15675;52.870;-1.416;2023-05-27T08:39:30;16.65;;;3.85;;
28447;SDS011;15675;52.870;-1.416;2023-05-27T08:41:56;17.48;;;4.10;;
28447;SDS011;15675;52.870;-1.416;2023-05-27T08:44:25;17.88;;;4.28;;
28447;SDS011;15675;52.870;-1.416;2023-05-27T08:46:50;15.45;;;3.83;;
28447;SDS011;15675;52.870;-1.416;2023-05-27T08:49:16;15.65;;;4.05;;
28447;SDS011;15675;52.870;-1.416;2023-05-27T08:51:43;15.63;;;3.90;;
28447;SDS011;15675;52.870;-1.416;2023-05-27T08:54:10;13.32;;;3.72;;
28447;SDS011;15675;52.870;-1.416;2023-05-27T08:56:36;15.25;;;3.78;;
28447;SDS011;15675;52.870;-1.416;2023-05-27T08:59:02;16.08;;;4.40;;
28447;SDS011;15675;52.870;-1.416;2023-05-27T09:01:28;17.63;;;4.47;;
28447;SDS011;15675;52.870;-1.416;2023-05-27T09:03:56;23.52;;;4.20;;
28447;SDS011;15675;52.870;-1.416;2023-05-27T09:06:21;15.60;;;4.47;;
28447;SDS011;15675;52.870;-1.416;2023-05-27T09:08:47;17.15;;;4.30;;
28447;SDS011;15675;52.870;-1.416;2023-05-27T09:11:22;13.07;;;3.88;;
28447;SDS011;15675;52.870;-1.416;2023-05-27T09:13:49;12.82;;;4.03;;
28447;SDS011;15675;52.870;-1.416;2023-05-27T09:16:19;17.02;;;4.20;;
28447;SDS011;15675;52.870;-1.416;2023-05-27T09:18:45;15.90;;;4.13;;
28447;SDS011;15675;52.870;-1.416;2023-05-27T09:21:11;17.50;;;4.65;;
28447;SDS011;15675;52.870;-1.416;2023-05-27T09:23:37;18.85;;;4.78;;
28447;SDS011;15675;52.870;-1.416;2023-05-27T09:26:10;18.02;;;4.50;;
28447;SDS011;15675;52.870;-1.416;2023-05-27T09:28:37;16.10;;;4.18;;
28447;SDS011;15675;52.870;-1.416;2023-05-27T09:31:04;18.50;;;4.28;;
28447;SDS011;15675;52.870;-1.416;2023-05-27T09:33:34;18.48;;;4.53;;
28447;SDS011;15675;52.870;-1.416;2023-05-27T09:36:05;12.93;;;4.03;;
28447;SDS011;15675;52.870;-1.416;2023-05-27T09:38:33;19.95;;;4.40;;
28447;SDS011;15675;52.870;-1.416;2023-05-27T09:41:00;17.10;;;4.55;;
28447;SDS011;15675;52.870;-1.416;2023-05-27T09:43:27;15.05;;;4.72;;
28447;SDS011;15675;52.870;-1.416;2023-05-27T09:48:22;16.25;;;4.65;;
28447;SDS011;15675;52.870;-1.416;2023-05-27T09:50:49;15.40;;;4.95;;
28447;SDS011;15675;52.870;-1.416;2023-05-27T09:53:16;13.02;;;4.18;;
28447;SDS011;15675;52.870;-1.416;2023-05-27T09:55:43;19.52;;;5.28;;
28447;SDS011;15675;52.870;-1.416;2023-05-27T09:58:09;15.07;;;3.67;;
28447;SDS011;15675;52.870;-1.416;2023-05-27T10:00:36;13.20;;;3.78;;
28447;SDS011;15675;52.870;-1.416;2023-05-27T10:03:05;13.80;;;4.07;;
28447;SDS011;15675;52.870;-1.416;2023-05-27T10:05:31;16.52;;;3.92;;
28447;SDS011;15675;52.870;-1.416;2023-05-27T10:07:58;11.73;;;4.28;;
28447;SDS011;15675;52.870;-1.416;2023-05-27T10:10:23;18.17;;;4.47;;
28447;SDS011;15675;52.870;-1.416;2023-05-27T10:12:50;15.38;;;4.10;;
28447;SDS011;15675;52.870;-1.416;2023-05-27T10:15:29;16.40;;;4.63;;
28447;SDS011;15675;52.870;-1.416;2023-05-27T10:20:32;19.15;;;4.30;;
28447;SDS011;15675;52.870;-1.416;2023-05-27T10:23:15;13.18;;;4.00;;
28447;SDS011;15675;52.870;-1.416;2023-05-27T10:25:46;11.55;;;3.78;;
28447;SDS011;15675;52.870;-1.416;2023-05-27T10:28:26;18.13;;;4.70;;
28447;SDS011;15675;52.870;-1.416;2023-05-27T10:30:53;13.05;;;4.40;;
28447;SDS011;15675;52.870;-1.416;2023-05-27T10:33:34;15.75;;;4.50;;
28447;SDS011;15675;52.870;-1.416;2023-05-27T10:36:07;18.05;;;4.38;;
28447;SDS011;15675;52.870;-1.416;2023-05-27T10:38:37;15.80;;;4.03;;
28447;SDS011;15675;52.870;-1.416;2023-05-27T10:41:05;8.80;;;3.13;;
28447;SDS011;15675;52.870;-1.416;2023-05-27T10:43:32;17.85;;;3.97;;
28447;SDS011;15675;52.870;-1.416;2023-05-27T10:46:12;14.25;;;4.03;;
28447;SDS011;15675;52.870;-1.416;2023-05-27T10:48:38;13.73;;;4.43;;
28447;SDS011;15675;52.870;-1.416;2023-05-27T10:51:07;12.05;;;3.97;;
28447;SDS011;15675;52.870;-1.416;2023-05-27T10:53:34;13.32;;;4.90;;
28447;SDS011;15675;52.870;-1.416;2023-05-27T10:56:01;19.55;;;6.20;;
28447;SDS011;15675;52.870;-1.416;2023-05-27T10:58:27;15.43;;;4.57;;
28447;SDS011;15675;52.870;-1.416;2023-05-27T11:00:53;12.95;;;4.28;;
28447;SDS011;15675;52.870;-1.416;2023-05-27T11:03:25;20.20;;;5.65;;
28447;SDS011;15675;52.870;-1.416;2023-05-27T11:08:29;12.60;;;4.82;;
28447;SDS011;15675;52.870;-1.416;2023-05-27T11:10:58;14.32;;;5.05;;
28447;SDS011;15675;52.870;-1.416;2023-05-27T11:13:31;23.98;;;5.10;;
28447;SDS011;15675;52.870;-1.416;2023-05-27T11:16:05;18.55;;;5.53;;
28447;SDS011;15675;52.870;-1.416;2023-05-27T11:21:09;22.90;;;5.28;;
28447;SDS011;15675;52.870;-1.416;2023-05-27T11:23:48;14.30;;;4.38;;
28447;SDS011;15675;52.870;-1.416;2023-05-27T11:26:18;16.42;;;5.10;;
28447;SDS011;15675;52.870;-1.416;2023-05-27T11:31:13;15.10;;;4.68;;
28447;SDS011;15675;52.870;-1.416;2023-05-27T11:33:40;15.70;;;4.72;;
28447;SDS011;15675;52.870;-1.416;2023-05-27T11:36:07;16.05;;;4.85;;
28447;SDS011;15675;52.870;-1.416;2023-05-27T11:38:53;14.77;;;4.75;;
28447;SDS011;15675;52.870;-1.416;2023-05-27T11:41:22;16.30;;;4.88;;
28447;SDS011;15675;52.870;-1.416;2023-05-27T11:44:00;11.40;;;4.63;;
28447;SDS011;15675;52.870;-1.416;2023-05-27T11:46:42;14.40;;;4.38;;
28447;SDS011;15675;52.870;-1.416;2023-05-27T11:49:10;15.73;;;4.18;;
28447;SDS011;15675;52.870;-1.416;2023-05-27T11:51:37;12.15;;;3.88;;
28447;SDS011;15675;52.870;-1.416;2023-05-27T11:54:05;12.93;;;4.00;;
28447;SDS011;15675;52.870;-1.416;2023-05-27T11:56:30;17.83;;;4.68;;
28447;SDS011;15675;52.870;-1.416;2023-05-27T11:58:56;12.98;;;4.22;;
28447;SDS011;15675;52.870;-1.416;2023-05-27T12:01:22;20.50;;;5.20;;
28447;SDS011;15675;52.870;-1.416;2023-05-27T12:03:48;15.82;;;4.22;;
28447;SDS011;15675;52.870;-1.416;2023-05-27T12:06:14;13.45;;;4.60;;
28447;SDS011;15675;52.870;-1.416;2023-05-27T12:08:40;19.77;;;5.05;;
28447;SDS011;15675;52.870;-1.416;2023-05-27T12:11:06;13.65;;;4.70;;
28447;SDS011;15675;52.870;-1.416;2023-05-27T12:13:32;21.30;;;4.93;;
28447;SDS011;15675;52.870;-1.416;2023-05-27T12:15:57;13.75;;;4.93;;
28447;SDS011;15675;52.870;-1.416;2023-05-27T12:18:23;11.45;;;4.47;;
28447;SDS011;15675;52.870;-1.416;2023-05-27T12:20:49;15.55;;;4.47;;
28447;SDS011;15675;52.870;-1.416;2023-05-27T12:23:15;10.32;;;3.72;;
28447;SDS011;15675;52.870;-1.416;2023-05-27T12:25:41;14.75;;;5.00;;
28447;SDS011;15675;52.870;-1.416;2023-05-27T12:28:07;11.43;;;4.10;;
28447;SDS011;15675;52.870;-1.416;2023-05-27T12:30:33;11.68;;;4.43;;
28447;SDS011;15675;52.870;-1.416;2023-05-27T12:33:00;19.55;;;4.82;;
28447;SDS011;15675;52.870;-1.416;2023-05-27T12:35:26;23.20;;;4.72;;
28447;SDS011;15675;52.870;-1.416;2023-05-27T12:37:52;13.18;;;4.13;;
28447;SDS011;15675;52.870;-1.416;2023-05-27T12:40:17;15.30;;;4.55;;
28447;SDS011;15675;52.870;-1.416;2023-05-27T12:42:43;11.10;;;4.05;;
28447;SDS011;15675;52.870;-1.416;2023-05-27T12:45:09;13.40;;;4.43;;
28447;SDS011;15675;52.870;-1.416;2023-05-27T12:47:35;10.98;;;3.50;;
28447;SDS011;15675;52.870;-1.416;2023-05-27T12:50:01;17.33;;;4.03;;
28447;SDS011;15675;52.870;-1.416;2023-05-27T12:52:27;8.75;;;3.70;;
28447;SDS011;15675;52.870;-1.416;2023-05-27T12:54:53;12.15;;;3.63;;
28447;SDS011;15675;52.870;-1.416;2023-05-27T12:57:19;12.95;;;3.65;;
28447;SDS011;15675;52.870;-1.416;2023-05-27T12:59:44;15.23;;;4.22;;
28447;SDS011;15675;52.870;-1.416;2023-05-27T13:02:10;11.20;;;3.97;;
28447;SDS011;15675;52.870;-1.416;2023-05-27T13:04:36;15.45;;;3.65;;
28447;SDS011;15675;52.870;-1.416;2023-05-27T13:07:02;11.07;;;3.65;;
28447;SDS011;15675;52.870;-1.416;2023-05-27T13:09:27;9.25;;;3.20;;
28447;SDS011;15675;52.870;-1.416;2023-05-27T13:11:53;11.20;;;3.72;;
28447;SDS011;15675;52.870;-1.416;2023-05-27T13:14:18;12.40;;;3.13;;
28447;SDS011;15675;52.870;-1.416;2023-05-27T13:16:44;16.55;;;3.75;;
28447;SDS011;15675;52.870;-1.416;2023-05-27T13:19:09;16.80;;;3.90;;
28447;SDS011;15675;52.870;-1.416;2023-05-27T13:21:35;14.52;;;3.53;;
28447;SDS011;15675;52.870;-1.416;2023-05-27T13:24:00;9.57;;;4.00;;
28447;SDS011;15675;52.870;-1.416;2023-05-27T13:26:27;12.73;;;4.15;;
28447;SDS011;15675;52.870;-1.416;2023-05-27T13:28:54;8.15;;;3.30;;
28447;SDS011;15675;52.870;-1.416;2023-05-27T13:31:20;12.23;;;3.55;;
28447;SDS011;15675;52.870;-1.416;2023-05-27T13:33:45;9.93;;;3.25;;
28447;SDS011;15675;52.870;-1.416;2023-05-27T13:36:11;10.68;;;3.30;;
28447;SDS011;15675;52.870;-1.416;2023-05-27T13:38:38;11.82;;;3.83;;
28447;SDS011;15675;52.870;-1.416;2023-05-27T13:41:04;11.65;;;3.10;;
28447;SDS011;15675;52.870;-1.416;2023-05-27T13:43:29;8.18;;;3.72;;
28447;SDS011;15675;52.870;-1.416;2023-05-27T13:45:55;11.15;;;3.35;;
28447;SDS011;15675;52.870;-1.416;2023-05-27T13:48:20;10.52;;;3.13;;
28447;SDS011;15675;52.870;-1.416;2023-05-27T13:50:46;8.90;;;3.83;;
28447;SDS011;15675;52.870;-1.416;2023-05-27T13:53:12;14.65;;;3.17;;
28447;SDS011;15675;52.870;-1.416;2023-05-27T13:55:37;7.80;;;3.05;;
28447;SDS011;15675;52.870;-1.416;2023-05-27T13:58:03;10.20;;;3.85;;
28447;SDS011;15675;52.870;-1.416;2023-05-27T14:00:28;9.07;;;3.30;;
28447;SDS011;15675;52.870;-1.416;2023-05-27T14:02:56;7.22;;;3.08;;
28447;SDS011;15675;52.870;-1.416;2023-05-27T14:05:23;10.40;;;3.03;;
28447;SDS011;15675;52.870;-1.416;2023-05-27T14:07:49;11.55;;;2.95;;
28447;SDS011;15675;52.870;-1.416;2023-05-27T14:10:14;9.10;;;3.83;;
28447;SDS011;15675;52.870;-1.416;2023-05-27T14:12:40;11.27;;;3.35;;
28447;SDS011;15675;52.870;-1.416;2023-05-27T14:15:05;13.77;;;3.60;;
28447;SDS011;15675;52.870;-1.416;2023-05-27T14:17:32;7.50;;;3.13;;
28447;SDS011;15675;52.870;-1.416;2023-05-27T14:19:57;8.55;;;3.33;;
28447;SDS011;15675;52.870;-1.416;2023-05-27T14:22:23;10.55;;;3.30;;
28447;SDS011;15675;52.870;-1.416;2023-05-27T14:24:49;10.25;;;3.35;;
28447;SDS011;15675;52.870;-1.416;2023-05-27T14:27:15;8.90;;;3.83;;
28447;SDS011;15675;52.870;-1.416;2023-05-27T14:29:40;13.18;;;4.13;;
28447;SDS011;15675;52.870;-1.416;2023-05-27T14:32:07;10.32;;;3.50;;
28447;SDS011;15675;52.870;-1.416;2023-05-27T14:34:33;9.00;;;3.10;;
28447;SDS011;15675;52.870;-1.416;2023-05-27T14:36:58;10.98;;;3.47;;
28447;SDS011;15675;52.870;-1.416;2023-05-27T14:39:24;7.93;;;2.50;;